• Join FlightAware (Why Join?)
  • Login
  • US Flag 
03:43PM EDT


 

Airport Tracker/Info


-or-


 

Live Flight TrackerFlight Track Log ✈ SWA542 ✈ 28-Apr-2013 ✈ KMCO - KSAT

Flight Track Log - Related Links

Times and Time Zones

All times are in EDT time to prevent confusion due to time zone crossing. See the SWA542 flight status page for this flight to view local times or setup timezone preferences in your user account.

Time Position Orientation Groundspeed Altitude Reporting Facility
EDT Latitude Longitude Course Direction KTS MPH feet Rate Location/Type
11:19AM 28.4000 -81.3000 221° Southwest 151 174 700  Level Orlando TRACON
11:19AM 28.3833 -81.3167 221° Southwest 191 220 1,800 2,040 Climbing Orlando TRACON
11:20AM 28.3500 -81.3833 240° Southwest 258 297 4,200 2,340 Climbing Orlando TRACON
11:21AM 28.3500 -81.4667 270° West 289 333 6,500 2,820 Climbing Orlando TRACON
11:24AM 28.3550 -81.6897 272° West 326 375 13,500 3,060 Climbing Jacksonville Center
11:25AM 28.3436 -81.8031 264° West 350 403 16,700 2,880 Climbing Jacksonville Center
11:26AM 28.3194 -81.9186 257° West 366 421 19,300 2,640 Climbing Jacksonville Center
11:27AM 28.2953 -82.0369 257° West 379 436 22,000 2,160 Climbing Jacksonville Center
11:28AM 28.2731 -82.1642 259° West 393 452 23,700 1,500 Climbing Jacksonville Center
11:29AM 28.2425 -82.2894 255° West 406 467 25,000 1,140 Climbing Jacksonville Center
11:30AM 28.2158 -82.4214 257° West 418 481 26,000 1,080 Climbing Jacksonville Center
11:31AM 28.2058 -82.5581 265° West 432 497 27,200 1,800 Climbing Jacksonville Center
11:32AM 28.2292 -82.6900 281° West 427 491 29,700 1,380 Climbing Jacksonville Center
11:33AM 28.2481 -82.8219 279° West 427 491 30,000 120 Climbing Jacksonville Center
11:34AM 28.2642 -82.9253 280° West 425 489 30,000  Level Miami Center
11:35AM 28.2836 -83.0558 280° West 425 489 30,000  Level Miami Center
11:36AM 28.3050 -83.1867 281° West 425 489 30,000  Level Miami Center
11:37AM 28.3264 -83.3175 281° West 425 489 30,000  Level Miami Center
11:38AM 28.3456 -83.4458 280° West 425 489 30,000  Level Miami Center
11:39AM 28.3750 -83.6547 279° West 419 482 30,000  Level Jacksonville Center
11:40AM 28.3953 -83.7797 280° West 414 476 30,000  Level Jacksonville Center
11:41AM 28.4131 -83.9097 279° West 414 476 30,000  Level Jacksonville Center
11:42AM 28.4328 -84.0469 279° West 420 483 30,000  Level Jacksonville Center
11:43AM 28.4522 -84.1794 280° West 431 496 30,000  Level Jacksonville Center
11:44AM 28.4717 -84.3167 279° West 431 496 30,000  Level Jacksonville Center
11:45AM 28.4911 -84.4539 279° West 437 503 30,000  Level Jacksonville Center
11:46AM 28.5103 -84.5769 280° West 443 510 30,000  Level Jacksonville Center
11:47AM 28.5314 -84.7119 280° West 443 510 30,000  Level Jacksonville Center
11:48AM 28.5481 -84.8542 278° West 448 516 30,000  Level Jacksonville Center
11:49AM 28.5689 -84.9869 280° West 443 510 30,000  Level Jacksonville Center
11:50AM 28.5875 -85.1244 279° West 443 510 30,000  Level Jacksonville Center
11:51AM 28.6061 -85.2594 279° West 443 510 30,000  Level Jacksonville Center
11:52AM 28.6242 -85.3994 278° West 450 518 30,000  Level Jacksonville Center
11:53AM 28.6422 -85.5372 279° West 450 518 30,000  Level Jacksonville Center
11:54AM 28.6622 -85.6772 279° West 450 518 30,000  Level Jacksonville Center
11:55AM 28.6803 -85.8128 279° West 450 518 30,000  Level Jacksonville Center
11:56AM 28.6997 -85.9575 279° West 445 512 30,000  Level Jacksonville Center
11:57AM 28.7172 -86.0931 278° West 445 512 30,000  Level Jacksonville Center
11:58AM 28.7347 -86.2286 278° West 445 512 30,000  Level Jacksonville Center
11:59AM 28.7519 -86.3617 278° West 439 505 30,000  Level Jacksonville Center
12:00PM 28.7672 -86.4947 277° West 432 497 30,000  Level Jacksonville Center
12:01PM 28.7842 -86.6281 278° West 427 491 30,000  Level Jacksonville Center
12:02PM 28.8033 -86.7614 279° West 427 491 30,000  Level Jacksonville Center
12:03PM 28.8200 -86.8947 278° West 427 491 30,000  Level Jacksonville Center
12:04PM 28.8347 -87.0233 277° West 422 486 30,000  Level Jacksonville Center
12:05PM 28.8533 -87.1567 279° West 422 486 30,000  Level Jacksonville Center
12:06PM 28.8697 -87.2903 278° West 429 494 30,000  Level Jacksonville Center
12:07PM 28.8881 -87.4497 278° West 422 486 30,000  Level Houston Center
12:08PM 28.9061 -87.6075 277° West 420 483 30,000  Level Houston Center
12:10PM 28.9217 -87.7386 278° West 420 483 30,000  Level Houston Center
12:11PM 28.9369 -87.8711 278° West 419 482 30,000  Level Houston Center
12:12PM 28.9511 -88.0039 277° West 422 486 30,000  Level Houston Center
12:13PM 28.9667 -88.1267 278° West 421 484 30,000  Level Houston Center
12:14PM 28.9831 -88.2847 277° West 419 482 30,000  Level Houston Center
12:15PM 28.9986 -88.4172 278° West 422 486 30,000  Level Houston Center
12:16PM 29.0136 -88.5522 277° West 426 490 30,000  Level Houston Center
12:17PM 29.0278 -88.6872 277° West 427 491 30,000  Level Houston Center
12:18PM 29.0414 -88.8231 277° West 432 497 30,000  Level Houston Center
12:19PM 29.0561 -88.9572 277° West 427 491 30,000  Level Houston Center
12:20PM 29.0719 -89.0886 278° West 421 484 30,000  Level Houston Center
12:21PM 29.0886 -89.2503 277° West 425 489 30,000  Level Houston Center
12:22PM 29.1025 -89.3819 277° West 421 484 30,000  Level Houston Center
12:23PM 29.1164 -89.5139 277° West 419 482 30,000  Level Houston Center
12:24PM 29.1103 -89.6481 267° West 424 488 30,000  Level Houston Center
12:25PM 29.1019 -89.7772 266° West 415 478 30,000  Level Houston Center
12:26PM 29.0933 -89.9069 266° West 410 472 30,000  Level Houston Center
12:27PM 29.0831 -90.0631 266° West 409 471 30,000  Level Houston Center
12:28PM 29.0925 -90.1911 275° West 412 474 30,000  Level Houston Center
12:29PM 29.1169 -90.3194 282° West 412 474 30,000  Level Houston Center
12:30PM 29.1392 -90.4444 282° West 405 466 30,000  Level Houston Center
12:31PM 29.1628 -90.5722 282° West 408 470 30,000  Level Houston Center
12:32PM 29.1869 -90.7031 282° West 418 481 30,000  Level Houston Center
12:33PM 29.2106 -90.8336 282° West 419 482 30,000  Level Houston Center
12:34PM 29.2411 -90.9925 282° West 423 487 30,000  Level Houston Center
12:35PM 29.2642 -91.1264 281° West 427 491 30,000 960 Level Houston Center
12:36PM 29.2881 -91.2569 282° West 423 487 32,000 960 Climbing Houston Center
12:37PM 29.3111 -91.3844 282° West 413 475 32,000  Level Houston Center
12:38PM 29.3342 -91.5139 282° West 415 478 32,000 840 Level Houston Center
12:39PM 29.3561 -91.6414 281° West 411 473 33,800 1,440 Climbing Houston Center
12:40PM 29.3814 -91.7861 281° West 392 451 35,000 960 Climbing Houston Center
12:42PM 29.4019 -91.9036 281° West 381 438 35,800 1,200 Climbing Houston Center
12:43PM 29.4197 -92.0164 280° West 368 423 37,600 1,200 Climbing Houston Center
12:44PM 29.4417 -92.1272 283° West 359 413 38,300 780 Climbing Houston Center
12:45PM 29.4614 -92.2442 281° West 367 422 39,300 780 Climbing Houston Center
12:46PM 29.4814 -92.3606 281° West 370 426 40,000 300 Climbing Houston Center
12:47PM 29.5056 -92.4997 281° West 372 428 40,000  Level Houston Center
12:48PM 29.5253 -92.6183 281° West 374 430 40,000  Level Houston Center
12:49PM 29.5456 -92.7344 281° West 371 427 40,000  Level Houston Center
12:50PM 29.5650 -92.8522 281° West 374 430 40,000  Level Houston Center
12:51PM 29.5839 -92.9686 281° West 372 428 40,000  Level Houston Center
12:53PM 29.6267 -93.2247 281° West 371 427 40,000  Level Houston Center
12:54PM 29.6450 -93.3411 280° West 370 426 40,000  Level Houston Center
12:55PM 29.6650 -93.4575 281° West 369 425 40,000  Level Houston Center
12:56PM 29.6836 -93.5736 280° West 368 423 40,000  Level Houston Center
12:57PM 29.7019 -93.6906 280° West 370 426 40,000  Level Houston Center
12:58PM 29.7208 -93.8089 280° West 374 430 40,000  Level Houston Center
12:59PM 29.7397 -93.9261 281° West 372 428 40,000  Level Houston Center
01:00PM 29.7619 -94.0683 280° West 374 430 40,000  Level Houston Center
01:01PM 29.7806 -94.1858 280° West 373 429 40,000  Level Houston Center
01:02PM 29.7997 -94.3072 280° West 373 429 40,000  Level Houston Center
01:03PM 29.8178 -94.4258 280° West 377 434 40,000  Level Houston Center
01:04PM 29.8358 -94.5439 280° West 376 433 40,000  Level Houston Center
01:05PM 29.8539 -94.6619 280° West 377 434 40,000  Level Houston Center
01:06PM 29.8728 -94.7789 281° West 375 432 40,000  Level Houston Center
01:07PM 29.8936 -94.9172 280° West 370 426 40,000  Level Houston Center
01:08PM 29.9117 -95.0333 280° West 371 427 40,000  Level Houston Center
01:09PM 29.9286 -95.1492 280° West 370 426 40,000  Level Houston Center
01:10PM 29.9461 -95.2636 280° West 368 423 40,000  Level Houston Center
01:11PM 29.9525 -95.3778 274° West 371 427 40,000  Level Houston Center
01:13PM 29.9236 -95.5144 256° West 371 427 40,000  Level Houston Center
01:14PM 29.8983 -95.6269 255° West 367 422 40,000  Level Houston Center
01:15PM 29.8739 -95.7406 256° West 368 423 40,000  Level Houston Center
01:16PM 29.8489 -95.8542 256° West 369 425 40,000  Level Houston Center
01:17PM 29.8250 -95.9667 256° West 365 420 40,000 -240 Level Houston Center
01:18PM 29.8008 -96.0797 256° West 358 412 39,600 -780 Descending Houston Center
01:19PM 29.7814 -96.2153 261° West 361 415 38,500 -1,020 Descending Houston Center
01:20PM 29.7894 -96.3283 275° West 357 411 37,500 -960 Descending Houston Center
01:21PM 29.7983 -96.4406 275° West 356 410 36,600 -960 Descending Houston Center
01:22PM 29.8067 -96.5558 275° West 362 417 35,600 -960 Descending Houston Center
01:23PM 29.8153 -96.6706 275° West 363 418 34,700 -1,020 Descending Houston Center
01:24PM 29.8236 -96.7892 275° West 374 430 33,600 -2,040 Descending Houston Center
01:25PM 29.8339 -96.9294 275° West 370 426 30,600 -2,580 Descending Houston Center
01:26PM 29.8425 -97.0428 275° West 364 419 28,400 -2,100 Descending Houston Center
01:27PM 29.8494 -97.1517 274° West 351 404 26,400 -2,040 Descending Houston Center
01:28PM 29.8572 -97.2578 275° West 337 388 24,300 -2,040 Descending Houston Center
01:29PM 29.8653 -97.3639 275° West 334 384 22,300 -2,100 Descending Houston Center
01:30PM 29.8733 -97.4861 274° West 321 369 20,000 -2,100 Descending Houston Center
01:31PM 29.8786 -97.5678 274° West 313 360 18,500 -1,860 Descending Houston Center
01:31PM 29.8797 -97.5925 273° West 320 368 18,100 -1,980 Descending Houston Center
01:32PM 29.8881 -97.7022 275° West 343 395 16,000 -2,160 Descending Houston Center
01:33PM 29.8956 -97.8283 274° West 345 397 13,500 -1,740 Descending Houston Center
01:34PM 29.8714 -97.9217 253° West 336 387 12,400 -1,320 Descending Houston Center
01:35PM 29.8278 -98.0267 244° Southwest 338 389 10,900 -1,260 Descending Houston Center
01:36PM 29.7869 -98.1236 244° Southwest 336 387 9,900 -1,200 Descending Houston Center
01:37PM 29.7481 -98.2153 244° Southwest 300 345 8,500 -1,380 Descending Houston Center
01:38PM 29.7117 -98.3006 244° Southwest 297 342 7,100 -1,260 Descending Houston Center
01:39PM 29.6942 -98.3942 258° West 281 323 6,000 -1,320 Descending Houston Center
01:41PM 29.6733 -98.4819 255° West 244 281 4,200 -1,500 Descending Houston Center
01:41PM 29.6344 -98.5369 231° Southwest 231 266 3,000 -780 Descending Houston Center
01:42PM 29.5986 -98.5581 207° Southwest 152 175 2,800 -660 Descending Houston Center
01:43PM 29.5725 -98.5253 132° Southeast 119 137 1,800 -900 Descending Houston Center
01:44PM 29.5508 -98.4967 131° Southeast 134 154 1,100 -780 Descending Houston Center
01:45PM 29.5456 -98.4872 123° Southeast 135 155 900 -780 Descending Houston Center
01:47PM 29.5340 -98.4691 221° Southwest  Level Estimated
01:54PM 29.5333 -98.4667 16° North  Level FlightAware Approximate